Kaleva, Michigan
Current Conditions -  °F | °C
As of 8:35 AM on Sunday 23 Nov 2014 (Local Time) from KMBL Reporting Station
Overcast Overcast  
Wind Chill: 43°   Ceiling: 400
Heat Index: 46°   Visibility: 1mi
Dew Point: 45°   Wind: 7mph
Humidity: 93%   Direction: 180°S
Pressure: 29.75"   Gusts: NA
Location:  44.37°N, 86.01°W
Report Text: KMBL 231335Z AUTO 18006KT 1SM OVC004 08/07 A2975 RMK AO1
Loading
Personal Weather Stations






























Interactive Weather Map New forecast layout! Learn more

10-Day Weather Forecast

Advertisements
Track Severe Weather on mobile